createdAt,value
2019-05-19T00:02:32.435Z,100168.05
2019-05-19T00:05:06.251Z,100169.61
2019-05-19T00:07:38.963Z,100162.44
2019-05-19T00:10:11.941Z,100161.34
2019-05-19T00:12:44.565Z,100169.28
2019-05-19T00:15:17.342Z,100171.70
2019-05-19T00:17:50.997Z,100167.52
2019-05-19T00:20:23.572Z,100168.38
2019-05-19T00:22:56.375Z,100170.69
2019-05-19T00:25:28.998Z,100173.33
2019-05-19T00:28:01.967Z,100175.97
2019-05-19T00:30:34.926Z,100174.53
2019-05-19T00:33:07.465Z,100172.60
2019-05-19T00:35:40.055Z,100172.34
2019-05-19T00:38:13.211Z,100166.92
2019-05-19T00:40:45.813Z,100173.03
2019-05-19T00:43:18.510Z,100172.03
2019-05-19T00:45:51.465Z,100167.38
2019-05-19T00:48:24.180Z,100156.03
2019-05-19T00:50:56.720Z,100165.98
2019-05-19T00:53:29.495Z,100165.02
2019-05-19T00:56:03.195Z,100168.97
2019-05-19T00:58:36.630Z,100165.28
2019-05-19T01:01:09.225Z,100161.55
2019-05-19T01:03:41.745Z,100156.98
2019-05-19T01:06:14.470Z,100160.22
2019-05-19T01:08:47.111Z,100161.92
2019-05-19T01:11:19.720Z,100160.59
2019-05-19T01:13:52.396Z,100158.43
2019-05-19T01:16:25.172Z,100156.03
2019-05-19T01:18:58.045Z,100151.23
2019-05-19T01:21:31.705Z,100151.23
2019-05-19T01:24:04.411Z,100145.84
2019-05-19T01:26:36.991Z,100146.81
2019-05-19T01:29:10.160Z,100143.19
2019-05-19T01:31:43.000Z,100141.26
2019-05-19T01:34:15.601Z,100141.83
2019-05-19T01:36:48.152Z,100136.66
2019-05-19T01:39:20.767Z,100138.30
2019-05-19T01:41:53.418Z,100132.55
2019-05-19T01:44:26.115Z,100132.91
2019-05-19T01:46:58.936Z,100126.82
2019-05-19T01:49:31.520Z,100127.43
2019-05-19T01:52:04.230Z,100122.51
2019-05-19T01:54:37.035Z,100117.48
2019-05-19T01:57:09.663Z,100112.41
2019-05-19T01:59:42.196Z,100115.78
2019-05-19T02:02:14.921Z,100117.02
2019-05-19T02:04:47.550Z,100117.48
2019-05-19T02:07:20.251Z,100119.50
2019-05-19T02:09:53.180Z,100124.16
2019-05-19T02:12:25.905Z,100122.46
2019-05-19T02:14:58.623Z,100130.37
2019-05-19T02:17:31.498Z,100127.85
2019-05-19T02:20:05.480Z,100134.55
2019-05-19T02:22:38.256Z,100137.89
2019-05-19T02:25:12.086Z,100136.78
2019-05-19T02:27:44.863Z,100136.31
2019-05-19T02:30:17.663Z,100151.65
2019-05-19T02:32:50.291Z,100139.88
2019-05-19T02:35:22.914Z,100130.28
2019-05-19T02:37:55.599Z,100137.19
2019-05-19T02:40:28.926Z,100136.95
2019-05-19T02:43:03.037Z,100125.92
2019-05-19T02:45:37.179Z,100132.04
2019-05-19T02:48:12.055Z,100141.72
2019-05-19T02:50:52.305Z,100140.33
2019-05-19T02:53:21.527Z,100132.51
2019-05-19T02:55:55.405Z,100128.00
2019-05-19T02:58:28.392Z,100129.39
2019-05-19T03:01:01.160Z,100127.46
2019-05-19T03:03:33.710Z,100132.69
2019-05-19T03:06:06.562Z,100132.19
2019-05-19T03:08:39.260Z,100127.46
2019-05-19T03:11:11.920Z,100128.20
2019-05-19T03:13:45.634Z,100129.05
2019-05-19T03:16:18.405Z,100126.56
2019-05-19T03:18:51.316Z,100122.61
2019-05-19T03:21:23.863Z,100121.64
2019-05-19T03:23:56.651Z,100117.78
2019-05-19T03:26:29.307Z,100125.02
2019-05-19T03:29:02.100Z,100130.69
2019-05-19T03:31:51.777Z,100127.83
2019-05-19T03:34:25.967Z,100127.03
2019-05-19T03:36:58.670Z,100133.53
2019-05-19T03:39:31.474Z,100146.82
2019-05-19T03:42:04.078Z,100139.88
2019-05-19T03:44:37.050Z,100151.65
2019-05-19T03:47:09.988Z,100128.67
2019-05-19T03:49:42.760Z,100131.42
2019-05-19T03:52:15.353Z,100132.41
2019-05-19T03:54:48.127Z,100136.11
2019-05-19T03:57:20.887Z,100122.97
2019-05-19T03:59:53.391Z,100123.75
2019-05-19T04:02:26.187Z,100128.50
2019-05-19T04:04:58.777Z,100125.83
2019-05-19T04:07:31.323Z,100124.05
2019-05-19T04:10:04.071Z,100130.12
2019-05-19T04:12:36.882Z,100136.58
2019-05-19T04:15:10.077Z,100138.23
2019-05-19T04:17:43.776Z,100140.02
2019-05-19T04:20:16.721Z,100140.05
2019-05-19T04:22:49.477Z,100154.00
2019-05-19T04:25:22.018Z,100151.92
2019-05-19T04:27:55.012Z,100150.01
2019-05-19T04:30:27.715Z,100148.89
2019-05-19T04:33:00.275Z,100141.22
2019-05-19T04:35:34.010Z,100153.27
2019-05-19T04:38:06.656Z,100150.47
2019-05-19T04:40:39.501Z,100148.28
2019-05-19T04:43:12.211Z,100159.22
2019-05-19T04:45:44.671Z,100150.77
2019-05-19T04:48:17.356Z,100156.69
2019-05-19T04:50:50.650Z,100149.93
2019-05-19T04:53:24.375Z,100148.38
2019-05-19T04:55:57.340Z,100152.61
2019-05-19T04:58:30.140Z,100163.77
2019-05-19T05:01:02.752Z,100153.02
2019-05-19T05:03:35.076Z,100154.38
2019-05-19T05:06:07.696Z,100152.67
2019-05-19T05:08:40.522Z,100134.50
2019-05-19T05:11:13.356Z,100142.68
2019-05-19T05:13:46.035Z,100135.09
2019-05-19T05:16:18.600Z,100122.98
2019-05-19T05:18:51.250Z,100126.87
2019-05-19T05:21:23.820Z,100123.62
2019-05-19T05:23:56.511Z,100111.42
2019-05-19T05:26:29.250Z,100107.30
2019-05-19T05:29:01.976Z,100105.97
2019-05-19T05:31:35.991Z,100108.99
2019-05-19T05:34:08.780Z,100102.00
2019-05-19T05:36:41.477Z,100103.95
2019-05-19T05:39:14.017Z,100103.88
2019-05-19T05:41:46.786Z,100101.30
2019-05-19T05:44:19.391Z,100107.78
2019-05-19T05:46:52.311Z,100100.95
2019-05-19T05:49:25.146Z,100096.16
2019-05-19T05:51:57.940Z,100106.30
2019-05-19T05:54:31.836Z,100107.30
2019-05-19T05:57:04.565Z,100107.14
2019-05-19T05:59:37.259Z,100103.75
2019-05-19T06:02:10.080Z,100088.58
2019-05-19T06:04:42.890Z,100096.60
2019-05-19T06:07:15.570Z,100110.92
2019-05-19T06:09:48.405Z,100139.16
2019-05-19T06:12:21.195Z,100132.24
2019-05-19T06:14:54.049Z,100135.81
2019-05-19T06:17:27.158Z,100133.68
2019-05-19T06:19:59.869Z,100116.52
2019-05-19T06:22:33.716Z,100120.75
2019-05-19T06:25:06.927Z,100123.36
2019-05-19T06:27:39.750Z,100105.53
2019-05-19T06:30:12.651Z,100097.77
2019-05-19T06:32:47.030Z,100087.53
2019-05-19T06:35:21.022Z,100080.77
2019-05-19T06:37:53.832Z,100072.66
2019-05-19T06:40:26.630Z,100076.03
2019-05-19T06:42:59.220Z,100078.10
2019-05-19T06:45:31.790Z,100060.80
2019-05-19T06:48:04.619Z,100059.59
2019-05-19T06:50:40.653Z,100058.28
2019-05-19T06:53:14.331Z,100060.01
2019-05-19T06:55:46.165Z,100061.50
2019-05-19T06:58:19.076Z,100069.23
2019-05-19T07:00:52.868Z,100062.95
2019-05-19T07:03:25.735Z,100099.02
2019-05-19T07:05:58.546Z,100160.83
2019-05-19T07:08:31.300Z,100165.79
2019-05-19T07:11:04.350Z,100146.77
2019-05-19T07:13:37.548Z,100149.02
2019-05-19T07:16:10.737Z,100163.73
2019-05-19T07:18:44.125Z,100161.55
2019-05-19T07:21:16.861Z,100143.05
2019-05-19T07:23:49.885Z,100139.13
2019-05-19T07:26:22.405Z,100144.73
2019-05-19T07:28:58.509Z,100149.34
2019-05-19T07:31:30.315Z,100144.79
2019-05-19T07:34:03.298Z,100134.30
2019-05-19T07:36:36.021Z,100128.25
2019-05-19T07:39:09.883Z,100125.17
2019-05-19T07:41:42.647Z,100132.79
2019-05-19T07:44:15.770Z,100131.80
2019-05-19T07:46:48.493Z,100138.02
2019-05-19T07:49:21.285Z,100145.80
2019-05-19T07:51:54.225Z,100137.29
2019-05-19T07:54:27.355Z,100119.29
2019-05-19T07:57:00.580Z,100127.09
2019-05-19T07:59:33.596Z,100136.43
2019-05-19T08:02:06.371Z,100133.19
2019-05-19T08:04:39.078Z,100135.19
2019-05-19T08:07:12.025Z,100135.30
2019-05-19T08:09:45.161Z,100129.89
2019-05-19T08:12:18.495Z,100121.00
2019-05-19T08:14:51.590Z,100113.62
2019-05-19T08:17:25.955Z,100105.84
2019-05-19T08:19:59.575Z,100093.03
2019-05-19T08:22:32.291Z,100093.55
2019-05-19T08:25:09.308Z,100087.58
2019-05-19T08:27:42.335Z,100085.37
2019-05-19T08:30:16.072Z,100089.47
2019-05-19T08:32:48.830Z,100087.30
2019-05-19T08:35:21.810Z,100090.88
2019-05-19T08:37:54.967Z,100093.08
2019-05-19T08:40:27.731Z,100095.53
2019-05-19T08:43:00.521Z,100090.46
2019-05-19T08:45:33.586Z,100094.22
2019-05-19T08:48:06.302Z,100097.28
2019-05-19T08:50:39.116Z,100105.97
2019-05-19T08:53:11.895Z,100102.68
2019-05-19T08:55:45.439Z,100101.34
2019-05-19T08:58:18.149Z,100098.37
2019-05-19T09:00:51.121Z,100096.22
2019-05-19T09:03:23.875Z,100099.96
2019-05-19T09:05:56.514Z,100097.95
